Terminal Aerodrome Forecast
Issued by NWS

Home | Current Version | Previous Version | Text Only | Print | Product List | Glossary On
Versions: 1 2 3 4 5 6 7 8 9 10 11 12 13 14 15 16
000
FTUS42 KMLB 302300
TAFSFB
TAF
KSFB 302322Z 3100/3124 13005KT P6SM SCT100 SCT250
     FM310800 00000KT P6SM SCT250
     FM311400 13006KT P6SM FEW030 FEW150 SCT250=

USA.gov is the U.S. government's official web portal to all federal, state and local government web resources and services.